sensor_id;sensor_type;location;lat;lon;timestamp;temperature;humidity
13598;DHT22;38563;54.258;12.574;2022-08-01T00:01:24;17.30;99.90
13598;DHT22;38563;54.258;12.574;2022-08-01T00:03:50;17.30;99.90
13598;DHT22;38563;54.258;12.574;2022-08-01T00:06:17;17.30;99.90
13598;DHT22;38563;54.258;12.574;2022-08-01T00:08:45;17.30;99.90
13598;DHT22;38563;54.258;12.574;2022-08-01T00:11:12;17.30;99.90
13598;DHT22;38563;54.258;12.574;2022-08-01T00:13:39;17.30;99.90
13598;DHT22;38563;54.258;12.574;2022-08-01T00:16:06;17.30;99.90
13598;DHT22;38563;54.258;12.574;2022-08-01T00:18:32;17.20;99.90
13598;DHT22;38563;54.258;12.574;2022-08-01T00:20:59;17.10;99.90
13598;DHT22;38563;54.258;12.574;2022-08-01T00:23:26;17.10;99.90
13598;DHT22;38563;54.258;12.574;2022-08-01T00:25:54;17.10;99.90
13598;DHT22;38563;54.258;12.574;2022-08-01T00:28:21;17.10;99.90
13598;DHT22;38563;54.258;12.574;2022-08-01T00:30:48;17.00;99.90
13598;DHT22;38563;54.258;12.574;2022-08-01T00:33:14;17.00;99.90
13598;DHT22;38563;54.258;12.574;2022-08-01T00:35:41;17.00;99.90
13598;DHT22;38563;54.258;12.574;2022-08-01T00:38:08;17.00;99.90
13598;DHT22;38563;54.258;12.574;2022-08-01T00:40:34;16.90;99.90
13598;DHT22;38563;54.258;12.574;2022-08-01T00:43:03;16.90;99.90
13598;DHT22;38563;54.258;12.574;2022-08-01T00:45:29;17.00;99.90
13598;DHT22;38563;54.258;12.574;2022-08-01T00:47:56;16.90;99.90
13598;DHT22;38563;54.258;12.574;2022-08-01T00:50:23;16.90;99.90
13598;DHT22;38563;54.258;12.574;2022-08-01T00:52:50;16.90;99.90
13598;DHT22;38563;54.258;12.574;2022-08-01T00:55:18;16.90;99.90
13598;DHT22;38563;54.258;12.574;2022-08-01T00:57:45;16.90;99.90
13598;DHT22;38563;54.258;12.574;2022-08-01T01:00:15;17.00;99.90
13598;DHT22;38563;54.258;12.574;2022-08-01T01:02:41;17.00;99.90
13598;DHT22;38563;54.258;12.574;2022-08-01T01:05:09;17.00;99.90
13598;DHT22;38563;54.258;12.574;2022-08-01T01:07:43;17.00;99.90
13598;DHT22;38563;54.258;12.574;2022-08-01T01:10:16;17.00;99.90
13598;DHT22;38563;54.258;12.574;2022-08-01T01:12:47;17.00;99.90
13598;DHT22;38563;54.258;12.574;2022-08-01T01:15:21;16.90;99.90
13598;DHT22;38563;54.258;12.574;2022-08-01T01:17:54;16.90;99.90
13598;DHT22;38563;54.258;12.574;2022-08-01T01:20:26;16.90;99.90
13598;DHT22;38563;54.258;12.574;2022-08-01T01:23:20;16.90;99.90
13598;DHT22;38563;54.258;12.574;2022-08-01T01:26:00;16.90;99.90
13598;DHT22;38563;54.258;12.574;2022-08-01T01:28:34;17.00;99.90
13598;DHT22;38563;54.258;12.574;2022-08-01T01:31:05;17.00;99.90
13598;DHT22;38563;54.258;12.574;2022-08-01T01:33:35;17.00;99.90
13598;DHT22;38563;54.258;12.574;2022-08-01T01:36:05;17.00;99.90
13598;DHT22;38563;54.258;12.574;2022-08-01T01:38:37;17.00;99.90
13598;DHT22;38563;54.258;12.574;2022-08-01T01:41:08;17.00;99.90
13598;DHT22;38563;54.258;12.574;2022-08-01T01:43:37;17.00;99.90
13598;DHT22;38563;54.258;12.574;2022-08-01T01:46:07;16.90;99.90
13598;DHT22;38563;54.258;12.574;2022-08-01T01:48:34;17.00;99.90
13598;DHT22;38563;54.258;12.574;2022-08-01T01:51:03;17.00;99.90
13598;DHT22;38563;54.258;12.574;2022-08-01T01:53:33;17.00;99.90
13598;DHT22;38563;54.258;12.574;2022-08-01T01:56:01;17.00;99.90
13598;DHT22;38563;54.258;12.574;2022-08-01T01:58:29;17.00;99.90
13598;DHT22;38563;54.258;12.574;2022-08-01T02:00:58;17.00;99.90
13598;DHT22;38563;54.258;12.574;2022-08-01T02:03:29;17.00;99.90
13598;DHT22;38563;54.258;12.574;2022-08-01T02:05:57;17.00;99.90
13598;DHT22;38563;54.258;12.574;2022-08-01T02:08:24;17.10;99.90
13598;DHT22;38563;54.258;12.574;2022-08-01T02:10:53;17.10;99.90
13598;DHT22;38563;54.258;12.574;2022-08-01T02:13:40;17.10;99.90
13598;DHT22;38563;54.258;12.574;2022-08-01T02:16:09;17.10;99.90
13598;DHT22;38563;54.258;12.574;2022-08-01T02:18:38;17.10;99.90
13598;DHT22;38563;54.258;12.574;2022-08-01T02:21:09;17.00;99.90
13598;DHT22;38563;54.258;12.574;2022-08-01T02:23:38;17.00;99.90
13598;DHT22;38563;54.258;12.574;2022-08-01T02:26:09;17.10;99.90
13598;DHT22;38563;54.258;12.574;2022-08-01T02:28:43;17.10;99.90
13598;DHT22;38563;54.258;12.574;2022-08-01T02:31:13;17.10;99.90
13598;DHT22;38563;54.258;12.574;2022-08-01T02:33:45;17.10;99.90
13598;DHT22;38563;54.258;12.574;2022-08-01T02:36:16;17.10;99.90
13598;DHT22;38563;54.258;12.574;2022-08-01T02:38:46;17.10;99.90
13598;DHT22;38563;54.258;12.574;2022-08-01T02:41:16;17.10;99.90
13598;DHT22;38563;54.258;12.574;2022-08-01T02:43:48;17.10;99.90
13598;DHT22;38563;54.258;12.574;2022-08-01T02:46:20;17.10;99.90
13598;DHT22;38563;54.258;12.574;2022-08-01T02:48:50;17.10;99.90
13598;DHT22;38563;54.258;12.574;2022-08-01T02:51:19;17.00;99.90
13598;DHT22;38563;54.258;12.574;2022-08-01T02:53:48;17.00;99.90
13598;DHT22;38563;54.258;12.574;2022-08-01T02:56:17;17.00;99.90
13598;DHT22;38563;54.258;12.574;2022-08-01T02:58:46;17.00;99.90
13598;DHT22;38563;54.258;12.574;2022-08-01T03:01:14;17.00;99.90
13598;DHT22;38563;54.258;12.574;2022-08-01T03:03:41;17.00;99.90
13598;DHT22;38563;54.258;12.574;2022-08-01T03:06:10;17.00;99.90
13598;DHT22;38563;54.258;12.574;2022-08-01T03:08:38;17.00;99.90
13598;DHT22;38563;54.258;12.574;2022-08-01T03:11:06;17.00;99.90
13598;DHT22;38563;54.258;12.574;2022-08-01T03:13:33;17.00;99.90
13598;DHT22;38563;54.258;12.574;2022-08-01T03:16:02;17.00;99.90
13598;DHT22;38563;54.258;12.574;2022-08-01T03:18:30;17.00;99.90
13598;DHT22;38563;54.258;12.574;2022-08-01T03:20:59;17.00;99.90
13598;DHT22;38563;54.258;12.574;2022-08-01T03:23:30;17.00;99.90
13598;DHT22;38563;54.258;12.574;2022-08-01T03:25:59;17.00;99.90
13598;DHT22;38563;54.258;12.574;2022-08-01T03:28:27;17.00;99.90
13598;DHT22;38563;54.258;12.574;2022-08-01T03:30:56;17.00;99.90
13598;DHT22;38563;54.258;12.574;2022-08-01T03:33:25;17.10;99.90
13598;DHT22;38563;54.258;12.574;2022-08-01T03:35:54;17.10;99.90
13598;DHT22;38563;54.258;12.574;2022-08-01T03:38:23;17.10;99.90
13598;DHT22;38563;54.258;12.574;2022-08-01T03:40:56;17.10;99.90
13598;DHT22;38563;54.258;12.574;2022-08-01T03:43:30;17.10;99.90
13598;DHT22;38563;54.258;12.574;2022-08-01T03:46:04;17.00;99.90
13598;DHT22;38563;54.258;12.574;2022-08-01T03:48:36;17.00;99.90
13598;DHT22;38563;54.258;12.574;2022-08-01T03:51:05;17.00;99.90
13598;DHT22;38563;54.258;12.574;2022-08-01T03:53:32;17.10;99.90
13598;DHT22;38563;54.258;12.574;2022-08-01T03:56:02;17.10;99.90
13598;DHT22;38563;54.258;12.574;2022-08-01T03:58:30;17.10;99.90
13598;DHT22;38563;54.258;12.574;2022-08-01T04:00:57;17.20;99.90
13598;DHT22;38563;54.258;12.574;2022-08-01T04:03:24;17.20;99.90
13598;DHT22;38563;54.258;12.574;2022-08-01T04:05:51;17.20;99.90
13598;DHT22;38563;54.258;12.574;2022-08-01T04:08:18;17.20;99.90
13598;DHT22;38563;54.258;12.574;2022-08-01T04:10:45;17.20;99.90
13598;DHT22;38563;54.258;12.574;2022-08-01T04:13:13;17.20;99.90
13598;DHT22;38563;54.258;12.574;2022-08-01T04:15:40;17.20;99.90
13598;DHT22;38563;54.258;12.574;2022-08-01T04:18:06;17.20;99.90
13598;DHT22;38563;54.258;12.574;2022-08-01T04:20:33;17.20;99.90
13598;DHT22;38563;54.258;12.574;2022-08-01T04:23:00;17.30;99.90
13598;DHT22;38563;54.258;12.574;2022-08-01T04:25:31;17.30;99.90
13598;DHT22;38563;54.258;12.574;2022-08-01T04:28:00;17.30;99.90
13598;DHT22;38563;54.258;12.574;2022-08-01T04:30:32;17.40;99.90
13598;DHT22;38563;54.258;12.574;2022-08-01T04:33:02;17.30;99.90
13598;DHT22;38563;54.258;12.574;2022-08-01T04:35:32;17.40;99.90
13598;DHT22;38563;54.258;12.574;2022-08-01T04:38:01;17.40;99.90
13598;DHT22;38563;54.258;12.574;2022-08-01T04:40:29;17.40;99.90
13598;DHT22;38563;54.258;12.574;2022-08-01T04:42:56;17.40;99.90
13598;DHT22;38563;54.258;12.574;2022-08-01T04:45:23;17.50;99.90
13598;DHT22;38563;54.258;12.574;2022-08-01T04:47:52;17.50;99.90
13598;DHT22;38563;54.258;12.574;2022-08-01T04:50:19;17.50;99.90
13598;DHT22;38563;54.258;12.574;2022-08-01T04:52:47;17.50;99.90
13598;DHT22;38563;54.258;12.574;2022-08-01T04:55:14;17.50;99.90
13598;DHT22;38563;54.258;12.574;2022-08-01T04:57:44;17.60;99.90
13598;DHT22;38563;54.258;12.574;2022-08-01T05:00:13;17.70;99.90
13598;DHT22;38563;54.258;12.574;2022-08-01T05:02:42;17.70;99.90
13598;DHT22;38563;54.258;12.574;2022-08-01T05:05:10;17.80;99.90
13598;DHT22;38563;54.258;12.574;2022-08-01T05:07:36;17.80;99.90
13598;DHT22;38563;54.258;12.574;2022-08-01T05:10:04;17.80;99.90
13598;DHT22;38563;54.258;12.574;2022-08-01T05:12:31;17.90;99.90
13598;DHT22;38563;54.258;12.574;2022-08-01T05:14:58;17.90;99.90
13598;DHT22;38563;54.258;12.574;2022-08-01T05:17:25;17.90;99.90
13598;DHT22;38563;54.258;12.574;2022-08-01T05:19:51;18.00;99.90
13598;DHT22;38563;54.258;12.574;2022-08-01T05:22:19;18.10;99.90
13598;DHT22;38563;54.258;12.574;2022-08-01T05:24:47;18.10;99.90
13598;DHT22;38563;54.258;12.574;2022-08-01T05:27:14;18.20;99.90
13598;DHT22;38563;54.258;12.574;2022-08-01T05:29:41;18.30;99.90
13598;DHT22;38563;54.258;12.574;2022-08-01T05:32:07;18.40;99.90
13598;DHT22;38563;54.258;12.574;2022-08-01T05:34:34;18.40;99.90
13598;DHT22;38563;54.258;12.574;2022-08-01T05:37:01;18.60;99.90
13598;DHT22;38563;54.258;12.574;2022-08-01T05:39:29;18.60;99.90
13598;DHT22;38563;54.258;12.574;2022-08-01T05:41:56;18.70;99.90
13598;DHT22;38563;54.258;12.574;2022-08-01T05:44:23;18.80;99.90
13598;DHT22;38563;54.258;12.574;2022-08-01T05:46:50;18.80;99.90
13598;DHT22;38563;54.258;12.574;2022-08-01T05:49:17;18.80;99.90
13598;DHT22;38563;54.258;12.574;2022-08-01T05:51:43;18.80;99.90
13598;DHT22;38563;54.258;12.574;2022-08-01T05:54:10;18.90;99.90
13598;DHT22;38563;54.258;12.574;2022-08-01T05:56:38;19.00;99.90
13598;DHT22;38563;54.258;12.574;2022-08-01T05:59:05;19.00;99.90
13598;DHT22;38563;54.258;12.574;2022-08-01T06:01:32;19.00;99.90
13598;DHT22;38563;54.258;12.574;2022-08-01T06:03:58;19.00;99.90
13598;DHT22;38563;54.258;12.574;2022-08-01T06:06:25;19.00;99.90
13598;DHT22;38563;54.258;12.574;2022-08-01T06:08:52;19.10;99.90
13598;DHT22;38563;54.258;12.574;2022-08-01T06:11:19;19.20;99.90
13598;DHT22;38563;54.258;12.574;2022-08-01T06:13:47;19.20;99.90
13598;DHT22;38563;54.258;12.574;2022-08-01T06:16:13;19.10;99.90
13598;DHT22;38563;54.258;12.574;2022-08-01T06:18:40;19.20;99.90
13598;DHT22;38563;54.258;12.574;2022-08-01T06:21:07;19.20;99.90
13598;DHT22;38563;54.258;12.574;2022-08-01T06:23:33;19.20;99.90
13598;DHT22;38563;54.258;12.574;2022-08-01T06:26:00;19.20;99.90
13598;DHT22;38563;54.258;12.574;2022-08-01T06:28:27;19.30;99.90
13598;DHT22;38563;54.258;12.574;2022-08-01T06:30:56;19.30;99.90
13598;DHT22;38563;54.258;12.574;2022-08-01T06:33:23;19.50;99.90
13598;DHT22;38563;54.258;12.574;2022-08-01T06:35:50;19.60;99.90
13598;DHT22;38563;54.258;12.574;2022-08-01T06:38:17;19.70;99.90
13598;DHT22;38563;54.258;12.574;2022-08-01T06:40:44;19.70;99.90
13598;DHT22;38563;54.258;12.574;2022-08-01T06:43:10;19.80;99.90
13598;DHT22;38563;54.258;12.574;2022-08-01T06:45:37;19.90;99.90
13598;DHT22;38563;54.258;12.574;2022-08-01T06:48:06;20.00;99.90
13598;DHT22;38563;54.258;12.574;2022-08-01T06:50:33;20.10;99.90
13598;DHT22;38563;54.258;12.574;2022-08-01T06:53:01;20.10;99.90
13598;DHT22;38563;54.258;12.574;2022-08-01T06:55:27;20.00;99.90
13598;DHT22;38563;54.258;12.574;2022-08-01T06:57:54;20.00;99.90
13598;DHT22;38563;54.258;12.574;2022-08-01T07:00:22;19.90;99.90
13598;DHT22;38563;54.258;12.574;2022-08-01T07:02:49;19.90;99.90
13598;DHT22;38563;54.258;12.574;2022-08-01T07:05:18;20.00;99.90
13598;DHT22;38563;54.258;12.574;2022-08-01T07:07:44;20.20;99.90
13598;DHT22;38563;54.258;12.574;2022-08-01T07:10:11;20.50;99.90
13598;DHT22;38563;54.258;12.574;2022-08-01T07:12:38;20.80;99.90
13598;DHT22;38563;54.258;12.574;2022-08-01T07:15:08;20.90;99.90
13598;DHT22;38563;54.258;12.574;2022-08-01T07:17:37;20.90;99.90
13598;DHT22;38563;54.258;12.574;2022-08-01T07:20:06;21.10;99.90
13598;DHT22;38563;54.258;12.574;2022-08-01T07:22:35;21.00;99.90
13598;DHT22;38563;54.258;12.574;2022-08-01T07:25:02;21.10;99.90
13598;DHT22;38563;54.258;12.574;2022-08-01T07:27:29;21.20;99.90
13598;DHT22;38563;54.258;12.574;2022-08-01T07:29:56;21.30;99.90
13598;DHT22;38563;54.258;12.574;2022-08-01T07:32:22;21.10;99.90
13598;DHT22;38563;54.258;12.574;2022-08-01T07:34:49;21.20;99.90
13598;DHT22;38563;54.258;12.574;2022-08-01T07:37:16;21.20;99.90
13598;DHT22;38563;54.258;12.574;2022-08-01T07:39:44;21.20;99.90
13598;DHT22;38563;54.258;12.574;2022-08-01T07:42:11;21.20;99.90
13598;DHT22;38563;54.258;12.574;2022-08-01T07:44:38;21.10;99.90
13598;DHT22;38563;54.258;12.574;2022-08-01T07:47:05;21.20;99.90
13598;DHT22;38563;54.258;12.574;2022-08-01T07:49:32;21.20;99.90
13598;DHT22;38563;54.258;12.574;2022-08-01T07:51:59;21.10;99.90
13598;DHT22;38563;54.258;12.574;2022-08-01T07:54:25;21.30;99.90
13598;DHT22;38563;54.258;12.574;2022-08-01T07:56:54;21.30;99.90
13598;DHT22;38563;54.258;12.574;2022-08-01T07:59:21;21.30;99.90
13598;DHT22;38563;54.258;12.574;2022-08-01T08:01:49;21.20;99.90
13598;DHT22;38563;54.258;12.574;2022-08-01T08:04:16;21.30;99.90
13598;DHT22;38563;54.258;12.574;2022-08-01T08:06:43;21.30;99.90
13598;DHT22;38563;54.258;12.574;2022-08-01T08:09:10;21.20;99.90
13598;DHT22;38563;54.258;12.574;2022-08-01T08:11:37;21.00;99.90
13598;DHT22;38563;54.258;12.574;2022-08-01T08:14:05;21.00;99.90
13598;DHT22;38563;54.258;12.574;2022-08-01T08:16:32;21.10;99.90
13598;DHT22;38563;54.258;12.574;2022-08-01T08:18:58;21.20;99.90
13598;DHT22;38563;54.258;12.574;2022-08-01T08:21:25;21.00;99.90
13598;DHT22;38563;54.258;12.574;2022-08-01T08:23:53;20.80;99.90
13598;DHT22;38563;54.258;12.574;2022-08-01T08:26:37;20.70;99.90
13598;DHT22;38563;54.258;12.574;2022-08-01T08:29:05;20.40;99.90
13598;DHT22;38563;54.258;12.574;2022-08-01T08:31:32;20.20;99.90
13598;DHT22;38563;54.258;12.574;2022-08-01T08:33:59;20.10;99.90
13598;DHT22;38563;54.258;12.574;2022-08-01T08:36:26;20.10;99.90
13598;DHT22;38563;54.258;12.574;2022-08-01T08:38:52;20.20;99.90
13598;DHT22;38563;54.258;12.574;2022-08-01T08:41:20;20.10;99.90
13598;DHT22;38563;54.258;12.574;2022-08-01T08:43:47;20.10;99.90
13598;DHT22;38563;54.258;12.574;2022-08-01T08:46:16;20.10;99.90
13598;DHT22;38563;54.258;12.574;2022-08-01T08:48:43;20.20;99.90
13598;DHT22;38563;54.258;12.574;2022-08-01T08:51:10;20.30;99.90
13598;DHT22;38563;54.258;12.574;2022-08-01T08:53:38;20.40;99.90
13598;DHT22;38563;54.258;12.574;2022-08-01T08:56:09;20.40;99.90
13598;DHT22;38563;54.258;12.574;2022-08-01T08:58:38;20.60;99.90
13598;DHT22;38563;54.258;12.574;2022-08-01T09:01:05;20.60;99.90
13598;DHT22;38563;54.258;12.574;2022-08-01T09:03:33;20.60;99.90
13598;DHT22;38563;54.258;12.574;2022-08-01T09:06:00;20.60;99.90
13598;DHT22;38563;54.258;12.574;2022-08-01T09:08:28;20.70;99.90
13598;DHT22;38563;54.258;12.574;2022-08-01T09:10:54;20.90;99.90
13598;DHT22;38563;54.258;12.574;2022-08-01T09:13:21;21.00;99.90
13598;DHT22;38563;54.258;12.574;2022-08-01T09:15:50;20.90;99.90
13598;DHT22;38563;54.258;12.574;2022-08-01T09:18:26;20.90;99.90
13598;DHT22;38563;54.258;12.574;2022-08-01T09:21:09;20.80;99.90
13598;DHT22;38563;54.258;12.574;2022-08-01T09:23:38;20.80;99.90
13598;DHT22;38563;54.258;12.574;2022-08-01T09:26:08;20.90;99.90
13598;DHT22;38563;54.258;12.574;2022-08-01T09:28:35;20.90;99.90
13598;DHT22;38563;54.258;12.574;2022-08-01T09:31:06;21.00;99.90
13598;DHT22;38563;54.258;12.574;2022-08-01T09:33:51;20.90;99.90
13598;DHT22;38563;54.258;12.574;2022-08-01T09:36:19;20.90;99.90
13598;DHT22;38563;54.258;12.574;2022-08-01T09:38:46;21.00;99.90
13598;DHT22;38563;54.258;12.574;2022-08-01T09:41:13;21.10;99.90
13598;DHT22;38563;54.258;12.574;2022-08-01T09:43:48;21.20;99.90
13598;DHT22;38563;54.258;12.574;2022-08-01T09:46:15;21.20;99.90
13598;DHT22;38563;54.258;12.574;2022-08-01T09:48:55;21.40;99.90
13598;DHT22;38563;54.258;12.574;2022-08-01T09:51:30;21.50;99.90
13598;DHT22;38563;54.258;12.574;2022-08-01T09:53:57;21.60;99.90
13598;DHT22;38563;54.258;12.574;2022-08-01T09:56:25;21.70;99.90
13598;DHT22;38563;54.258;12.574;2022-08-01T09:58:56;21.80;99.90
13598;DHT22;38563;54.258;12.574;2022-08-01T10:01:23;21.60;99.90
13598;DHT22;38563;54.258;12.574;2022-08-01T10:04:07;21.70;99.90
13598;DHT22;38563;54.258;12.574;2022-08-01T10:06:36;21.70;99.90
13598;DHT22;38563;54.258;12.574;2022-08-01T10:09:03;21.70;99.90
13598;DHT22;38563;54.258;12.574;2022-08-01T10:11:31;21.90;99.90
13598;DHT22;38563;54.258;12.574;2022-08-01T10:13:59;22.00;99.90
13598;DHT22;38563;54.258;12.574;2022-08-01T10:16:27;22.20;99.90
13598;DHT22;38563;54.258;12.574;2022-08-01T10:18:55;22.30;99.90
13598;DHT22;38563;54.258;12.574;2022-08-01T10:21:22;22.20;99.90
13598;DHT22;38563;54.258;12.574;2022-08-01T10:23:54;22.10;99.90
13598;DHT22;38563;54.258;12.574;2022-08-01T10:26:25;21.90;99.90
13598;DHT22;38563;54.258;12.574;2022-08-01T10:28:52;21.80;99.90
13598;DHT22;38563;54.258;12.574;2022-08-01T10:31:20;21.80;99.90
13598;DHT22;38563;54.258;12.574;2022-08-01T10:33:47;21.80;99.90
13598;DHT22;38563;54.258;12.574;2022-08-01T10:36:17;21.60;99.90
13598;DHT22;38563;54.258;12.574;2022-08-01T10:38:45;21.70;99.90
13598;DHT22;38563;54.258;12.574;2022-08-01T10:41:13;21.90;99.90
13598;DHT22;38563;54.258;12.574;2022-08-01T10:43:42;22.00;99.90
13598;DHT22;38563;54.258;12.574;2022-08-01T10:46:08;22.10;99.90
13598;DHT22;38563;54.258;12.574;2022-08-01T10:48:43;22.40;99.90
13598;DHT22;38563;54.258;12.574;2022-08-01T10:51:12;22.10;99.90
13598;DHT22;38563;54.258;12.574;2022-08-01T10:53:46;21.70;99.90
13598;DHT22;38563;54.258;12.574;2022-08-01T10:56:14;21.50;99.90
13598;DHT22;38563;54.258;12.574;2022-08-01T10:58:44;21.20;99.90
13598;DHT22;38563;54.258;12.574;2022-08-01T11:01:17;21.00;99.90
13598;DHT22;38563;54.258;12.574;2022-08-01T11:03:46;20.90;99.90
13598;DHT22;38563;54.258;12.574;2022-08-01T11:06:24;20.80;99.90
13598;DHT22;38563;54.258;12.574;2022-08-01T11:08:53;20.60;99.90
13598;DHT22;38563;54.258;12.574;2022-08-01T11:11:22;20.30;99.90
13598;DHT22;38563;54.258;12.574;2022-08-01T11:14:00;20.10;99.90
13598;DHT22;38563;54.258;12.574;2022-08-01T11:16:30;19.90;99.90
13598;DHT22;38563;54.258;12.574;2022-08-01T11:18:57;19.80;99.90
13598;DHT22;38563;54.258;12.574;2022-08-01T11:21:58;19.60;99.90
13598;DHT22;38563;54.258;12.574;2022-08-01T11:24:54;19.50;99.90
13598;DHT22;38563;54.258;12.574;2022-08-01T11:27:25;19.40;99.90
13598;DHT22;38563;54.258;12.574;2022-08-01T11:30:24;19.40;99.90
13598;DHT22;38563;54.258;12.574;2022-08-01T11:32:56;19.40;99.90
13598;DHT22;38563;54.258;12.574;2022-08-01T11:35:24;19.40;99.90
13598;DHT22;38563;54.258;12.574;2022-08-01T11:37:53;19.50;99.90
13598;DHT22;38563;54.258;12.574;2022-08-01T11:40:22;19.40;99.90
13598;DHT22;38563;54.258;12.574;2022-08-01T11:43:17;19.40;99.90
13598;DHT22;38563;54.258;12.574;2022-08-01T11:45:48;19.40;99.90
13598;DHT22;38563;54.258;12.574;2022-08-01T11:48:18;19.50;99.90
13598;DHT22;38563;54.258;12.574;2022-08-01T11:50:45;19.40;99.90
13598;DHT22;38563;54.258;12.574;2022-08-01T11:53:12;19.40;99.90
13598;DHT22;38563;54.258;12.574;2022-08-01T11:55:45;19.40;99.90
13598;DHT22;38563;54.258;12.574;2022-08-01T11:58:15;19.30;99.90
13598;DHT22;38563;54.258;12.574;2022-08-01T12:00:42;19.00;99.90
13598;DHT22;38563;54.258;12.574;2022-08-01T12:03:16;18.80;99.90
13598;DHT22;38563;54.258;12.574;2022-08-01T12:05:43;18.60;99.90
13598;DHT22;38563;54.258;12.574;2022-08-01T12:08:10;18.50;99.90
13598;DHT22;38563;54.258;12.574;2022-08-01T12:10:37;18.50;99.90
13598;DHT22;38563;54.258;12.574;2022-08-01T12:13:05;18.60;99.90
13598;DHT22;38563;54.258;12.574;2022-08-01T12:15:35;18.70;99.90
13598;DHT22;38563;54.258;12.574;2022-08-01T12:18:03;18.80;99.90
13598;DHT22;38563;54.258;12.574;2022-08-01T12:20:32;19.00;99.90
13598;DHT22;38563;54.258;12.574;2022-08-01T12:23:01;19.00;99.90
13598;DHT22;38563;54.258;12.574;2022-08-01T12:25:28;19.10;99.90
13598;DHT22;38563;54.258;12.574;2022-08-01T12:27:58;19.20;99.90
13598;DHT22;38563;54.258;12.574;2022-08-01T12:30:25;19.50;99.90
13598;DHT22;38563;54.258;12.574;2022-08-01T12:32:54;19.70;99.90
13598;DHT22;38563;54.258;12.574;2022-08-01T12:35:22;20.00;99.90
13598;DHT22;38563;54.258;12.574;2022-08-01T12:37:51;20.40;99.90
13598;DHT22;38563;54.258;12.574;2022-08-01T12:40:20;20.80;99.90
13598;DHT22;38563;54.258;12.574;2022-08-01T12:42:48;20.80;99.90
13598;DHT22;38563;54.258;12.574;2022-08-01T12:45:17;20.60;99.90
13598;DHT22;38563;54.258;12.574;2022-08-01T12:47:44;20.40;99.90
13598;DHT22;38563;54.258;12.574;2022-08-01T12:50:15;20.60;99.90
13598;DHT22;38563;54.258;12.574;2022-08-01T12:52:42;21.00;99.90
13598;DHT22;38563;54.258;12.574;2022-08-01T12:55:12;21.20;99.90
13598;DHT22;38563;54.258;12.574;2022-08-01T12:57:40;20.80;99.90
13598;DHT22;38563;54.258;12.574;2022-08-01T13:00:17;20.70;99.90
13598;DHT22;38563;54.258;12.574;2022-08-01T13:02:46;20.60;99.90
13598;DHT22;38563;54.258;12.574;2022-08-01T13:05:15;20.70;99.90
13598;DHT22;38563;54.258;12.574;2022-08-01T13:07:48;20.60;99.90
13598;DHT22;38563;54.258;12.574;2022-08-01T13:10:24;20.40;99.90
13598;DHT22;38563;54.258;12.574;2022-08-01T13:12:53;20.30;99.90
13598;DHT22;38563;54.258;12.574;2022-08-01T13:15:26;20.20;99.90
13598;DHT22;38563;54.258;12.574;2022-08-01T13:17:54;20.20;99.90
13598;DHT22;38563;54.258;12.574;2022-08-01T13:20:23;20.20;99.90
13598;DHT22;38563;54.258;12.574;2022-08-01T13:22:50;20.30;99.90
13598;DHT22;38563;54.258;12.574;2022-08-01T13:25:17;20.30;99.90
13598;DHT22;38563;54.258;12.574;2022-08-01T13:27:44;20.20;99.90
13598;DHT22;38563;54.258;12.574;2022-08-01T13:30:13;20.20;99.90
13598;DHT22;38563;54.258;12.574;2022-08-01T13:32:39;20.20;99.90
13598;DHT22;38563;54.258;12.574;2022-08-01T13:35:09;20.40;99.90
13598;DHT22;38563;54.258;12.574;2022-08-01T13:37:40;20.70;99.90
13598;DHT22;38563;54.258;12.574;2022-08-01T13:40:09;21.10;99.90
13598;DHT22;38563;54.258;12.574;2022-08-01T13:42:36;21.20;99.90
13598;DHT22;38563;54.258;12.574;2022-08-01T13:45:03;21.30;99.90
13598;DHT22;38563;54.258;12.574;2022-08-01T13:47:32;21.20;99.90
13598;DHT22;38563;54.258;12.574;2022-08-01T13:49:59;21.60;99.90
13598;DHT22;38563;54.258;12.574;2022-08-01T13:52:28;22.00;99.90
13598;DHT22;38563;54.258;12.574;2022-08-01T13:54:56;22.30;99.90
13598;DHT22;38563;54.258;12.574;2022-08-01T13:57:23;22.30;99.90
13598;DHT22;38563;54.258;12.574;2022-08-01T13:59:49;22.50;99.90
13598;DHT22;38563;54.258;12.574;2022-08-01T14:02:16;22.60;99.90
13598;DHT22;38563;54.258;12.574;2022-08-01T14:04:43;22.80;99.90
13598;DHT22;38563;54.258;12.574;2022-08-01T14:07:10;22.70;99.90
13598;DHT22;38563;54.258;12.574;2022-08-01T14:09:37;22.90;99.90
13598;DHT22;38563;54.258;12.574;2022-08-01T14:12:06;22.70;99.90
13598;DHT22;38563;54.258;12.574;2022-08-01T14:14:33;22.80;99.90
13598;DHT22;38563;54.258;12.574;2022-08-01T14:17:00;23.00;99.90
13598;DHT22;38563;54.258;12.574;2022-08-01T14:19:28;22.90;99.90
13598;DHT22;38563;54.258;12.574;2022-08-01T14:21:54;22.90;99.90
13598;DHT22;38563;54.258;12.574;2022-08-01T14:24:22;23.20;99.90
13598;DHT22;38563;54.258;12.574;2022-08-01T14:26:49;23.20;99.90
13598;DHT22;38563;54.258;12.574;2022-08-01T14:29:17;23.30;99.90
13598;DHT22;38563;54.258;12.574;2022-08-01T14:31:43;23.50;99.90
13598;DHT22;38563;54.258;12.574;2022-08-01T14:34:10;23.80;99.90
13598;DHT22;38563;54.258;12.574;2022-08-01T14:36:38;23.90;99.90
13598;DHT22;38563;54.258;12.574;2022-08-01T14:39:05;24.00;99.90
13598;DHT22;38563;54.258;12.574;2022-08-01T14:41:32;23.80;99.90
13598;DHT22;38563;54.258;12.574;2022-08-01T14:43:59;23.80;99.90
13598;DHT22;38563;54.258;12.574;2022-08-01T14:46:27;23.60;99.90
13598;DHT22;38563;54.258;12.574;2022-08-01T14:48:54;23.80;99.90
13598;DHT22;38563;54.258;12.574;2022-08-01T14:51:21;23.50;99.90
13598;DHT22;38563;54.258;12.574;2022-08-01T14:53:47;23.60;99.90
13598;DHT22;38563;54.258;12.574;2022-08-01T14:56:14;24.00;99.90
13598;DHT22;38563;54.258;12.574;2022-08-01T14:58:41;24.20;99.90
13598;DHT22;38563;54.258;12.574;2022-08-01T15:01:08;24.10;99.90
13598;DHT22;38563;54.258;12.574;2022-08-01T15:03:36;23.90;99.90
13598;DHT22;38563;54.258;12.574;2022-08-01T15:06:03;24.00;99.90
13598;DHT22;38563;54.258;12.574;2022-08-01T15:08:31;23.90;99.90
13598;DHT22;38563;54.258;12.574;2022-08-01T15:10:58;23.50;99.90
13598;DHT22;38563;54.258;12.574;2022-08-01T15:13:26;23.30;99.90
13598;DHT22;38563;54.258;12.574;2022-08-01T15:15:53;23.10;99.90
13598;DHT22;38563;54.258;12.574;2022-08-01T15:18:19;23.40;99.90
13598;DHT22;38563;54.258;12.574;2022-08-01T15:20:47;23.60;99.90
13598;DHT22;38563;54.258;12.574;2022-08-01T15:23:14;23.70;99.90
13598;DHT22;38563;54.258;12.574;2022-08-01T15:25:41;24.00;99.90